Time;durP1;ratioP1;P1;durP2;ratioP2;P2;SDS_P1;SDS_P2;PMS_P1;PMS_P2;Temp;Humidity;BMP_temperature;BMP_pressure;BME280_temperature;BME280_humidity;BME280_pressure;Samples;Min_cycle;Max_cycle;Signal;HPM_P1;HPM_P2
2022/11/30 00:01:47;;;;;;;47.95;8.40;;;;;;;;;;5024507;28;20041;-83
2022/11/30 00:04:12;;;;;;;36.80;7.85;;;;;;;;;;5024629;28;20017;-83
2022/11/30 00:06:41;;;;;;;34.47;7.10;;;;;;;;;;5024768;28;20037;-83
2022/11/30 00:09:06;;;;;;;46.00;7.78;;;;;;;;;;5028438;28;20037;-83
2022/11/30 00:11:32;;;;;;;56.63;7.70;;;;;;;;;;5026897;28;20419;-83
2022/11/30 00:13:58;;;;;;;53.83;6.88;;;;;;;;;;5043388;28;20044;-82
2022/11/30 00:16:26;;;;;;;45.58;7.30;;;;;;;;;;5028790;28;20033;-83
2022/11/30 00:18:51;;;;;;;41.33;8.05;;;;;;;;;;5028307;28;20068;-82
2022/11/30 00:21:17;;;;;;;29.15;7.78;;;;;;;;;;5026804;28;20038;-82
2022/11/30 00:23:44;;;;;;;23.50;6.88;;;;;;;;;;5026170;28;20041;-83
2022/11/30 00:26:12;;;;;;;44.42;7.70;;;;;;;;;;5024895;28;20061;-82
2022/11/30 00:28:38;;;;;;;50.70;7.85;;;;;;;;;;5028812;28;20025;-82
2022/11/30 00:31:07;;;;;;;31.58;7.95;;;;;;;;;;5029427;28;20028;-83
2022/11/30 00:33:34;;;;;;;43.45;7.97;;;;;;;;;;5028015;28;20048;-82
2022/11/30 00:36:02;;;;;;;50.85;9.30;;;;;;;;;;5028180;28;20057;-83
2022/11/30 00:38:27;;;;;;;41.33;7.60;;;;;;;;;;5019835;28;20785;-82
2022/11/30 00:40:53;;;;;;;84.25;8.07;;;;;;;;;;5036201;28;20037;-83
2022/11/30 00:43:18;;;;;;;49.65;7.18;;;;;;;;;;5027162;28;20021;-83
2022/11/30 00:45:44;;;;;;;43.53;8.60;;;;;;;;;;5027500;28;20041;-82
2022/11/30 00:48:09;;;;;;;41.40;7.97;;;;;;;;;;5027684;28;20576;-83
2022/11/30 00:50:34;;;;;;;69.43;8.27;;;;;;;;;;5027654;28;20099;-83
2022/11/30 00:53:00;;;;;;;61.42;8.77;;;;;;;;;;5028432;28;20038;-83
2022/11/30 00:55:26;;;;;;;46.60;9.05;;;;;;;;;;5027597;28;20220;-83
2022/11/30 00:57:52;;;;;;;34.42;7.90;;;;;;;;;;5027920;28;20048;-83
2022/11/30 01:00:17;;;;;;;29.27;8.15;;;;;;;;;;5026566;28;20125;-82
2022/11/30 01:02:43;;;;;;;28.88;8.25;;;;;;;;;;5026542;28;20073;-83
2022/11/30 01:05:09;;;;;;;47.70;8.68;;;;;;;;;;5019432;28;20040;-83
2022/11/30 01:07:34;;;;;;;75.30;8.50;;;;;;;;;;5020741;28;20029;-82
2022/11/30 01:10:00;;;;;;;51.25;8.57;;;;;;;;;;5026836;28;20029;-83
2022/11/30 01:12:25;;;;;;;64.82;9.70;;;;;;;;;;5027422;28;20104;-83
2022/11/30 01:14:50;;;;;;;52.00;8.23;;;;;;;;;;5025882;28;20421;-83
2022/11/30 01:17:16;;;;;;;33.63;7.97;;;;;;;;;;5024597;28;20037;-80
2022/11/30 01:19:41;;;;;;;38.33;7.95;;;;;;;;;;5022349;28;20041;-83
2022/11/30 01:22:06;;;;;;;31.27;6.78;;;;;;;;;;5025800;28;20029;-82
2022/11/30 01:24:31;;;;;;;35.20;8.13;;;;;;;;;;5026189;28;20034;-82
2022/11/30 01:26:57;;;;;;;36.95;8.50;;;;;;;;;;5031861;28;20073;-85
2022/11/30 01:29:22;;;;;;;66.50;8.63;;;;;;;;;;5023915;28;20095;-82
2022/11/30 01:31:47;;;;;;;67.35;9.10;;;;;;;;;;5022715;28;20593;-82
2022/11/30 01:34:13;;;;;;;35.45;7.65;;;;;;;;;;5026708;28;20108;-83
2022/11/30 01:36:38;;;;;;;40.50;7.65;;;;;;;;;;5026506;28;20041;-83
2022/11/30 01:39:07;;;;;;;49.47;8.45;;;;;;;;;;5025751;28;20068;-83
2022/11/30 01:41:33;;;;;;;48.42;8.73;;;;;;;;;;5025536;28;20083;-82
2022/11/30 01:44:04;;;;;;;33.70;7.30;;;;;;;;;;5018511;28;20057;-83
2022/11/30 01:46:29;;;;;;;53.78;7.38;;;;;;;;;;5027042;28;20021;-83
2022/11/30 01:49:05;;;;;;;66.38;8.38;;;;;;;;;;5019618;28;20042;-78
2022/11/30 01:51:43;;;;;;;42.35;9.15;;;;;;;;;;5025563;28;20060;-83
2022/11/30 01:54:11;;;;;;;34.45;8.52;;;;;;;;;;5024054;28;20457;-83
2022/11/30 01:56:41;;;;;;;43.20;8.27;;;;;;;;;;5019291;28;20037;-82
2022/11/30 01:59:08;;;;;;;40.72;8.02;;;;;;;;;;5019420;28;20060;-83
2022/11/30 02:01:33;;;;;;;38.15;8.95;;;;;;;;;;5021128;28;20022;-83
2022/11/30 02:04:05;;;;;;;40.47;8.93;;;;;;;;;;5026544;28;20091;-83
2022/11/30 02:06:30;;;;;;;34.85;7.53;;;;;;;;;;5026446;28;20115;-83
2022/11/30 02:08:56;;;;;;;40.40;9.25;;;;;;;;;;5023336;28;20507;-83
2022/11/30 02:11:23;;;;;;;48.63;8.77;;;;;;;;;;5020876;28;20052;-83
2022/11/30 02:14:00;;;;;;;38.38;8.55;;;;;;;;;;5026932;28;20572;-83
2022/11/30 02:17:05;;;;;;;33.35;7.72;;;;;;;;;;5009247;28;20113;-82
2022/11/30 02:19:58;;;;;;;34.97;8.48;;;;;;;;;;5020663;28;20034;-83
2022/11/30 02:22:32;;;;;;;50.90;9.18;;;;;;;;;;5024909;28;20066;-82
2022/11/30 02:25:22;;;;;;;49.95;9.10;;;;;;;;;;5024254;28;20520;-83
2022/11/30 02:28:20;;;;;;;40.42;8.55;;;;;;;;;;5014775;28;20107;-82
2022/11/30 02:30:48;;;;;;;67.85;8.93;;;;;;;;;;5023947;28;20112;-83
2022/11/30 02:33:20;;;;;;;39.45;9.18;;;;;;;;;;5023687;28;20992;-83
2022/11/30 02:35:49;;;;;;;63.85;9.20;;;;;;;;;;5020138;28;20038;-82
2022/11/30 02:38:20;;;;;;;39.60;8.10;;;;;;;;;;5025651;28;20022;-82
2022/11/30 02:40:45;;;;;;;59.38;9.45;;;;;;;;;;5023387;28;20057;-82
2022/11/30 02:43:10;;;;;;;37.97;9.55;;;;;;;;;;5019543;28;20049;-82
2022/11/30 02:45:46;;;;;;;32.35;7.38;;;;;;;;;;5034074;28;20045;-82
2022/11/30 02:48:13;;;;;;;42.47;9.13;;;;;;;;;;5020311;28;20037;-82
2022/11/30 02:50:46;;;;;;;55.58;9.57;;;;;;;;;;5024385;28;20032;-82
2022/11/30 02:53:12;;;;;;;37.25;8.27;;;;;;;;;;5026061;28;20045;-83
2022/11/30 02:55:38;;;;;;;42.92;7.78;;;;;;;;;;5022792;28;20060;-82
2022/11/30 02:58:04;;;;;;;35.50;8.00;;;;;;;;;;5020561;28;20052;-83
2022/11/30 03:00:29;;;;;;;27.42;7.78;;;;;;;;;;5024408;28;20057;-83
2022/11/30 03:02:55;;;;;;;37.78;8.38;;;;;;;;;;5025281;28;20045;-82
2022/11/30 03:05:20;;;;;;;30.65;8.32;;;;;;;;;;5023686;28;20079;-83
2022/11/30 03:07:45;;;;;;;35.53;8.38;;;;;;;;;;5024388;28;20029;-82
2022/11/30 03:10:11;;;;;;;54.00;8.45;;;;;;;;;;5026131;28;20033;-82
2022/11/30 03:12:36;;;;;;;32.13;6.82;;;;;;;;;;5025504;28;20045;-83
2022/11/30 03:15:02;;;;;;;79.05;9.68;;;;;;;;;;5021861;28;20080;-82
2022/11/30 03:17:27;;;;;;;48.80;8.15;;;;;;;;;;5026264;28;20064;-82
2022/11/30 03:19:53;;;;;;;34.10;8.00;;;;;;;;;;5026545;28;21675;-83
2022/11/30 03:22:18;;;;;;;55.80;9.52;;;;;;;;;;5025219;28;20559;-82
2022/11/30 03:24:43;;;;;;;34.38;8.13;;;;;;;;;;5024143;28;20571;-82
2022/11/30 03:27:08;;;;;;;37.80;7.60;;;;;;;;;;5018999;28;20136;-80
2022/11/30 03:29:34;;;;;;;49.42;9.73;;;;;;;;;;5024369;28;20033;-82
2022/11/30 03:31:59;;;;;;;51.92;8.95;;;;;;;;;;5023890;28;20030;-83
2022/11/30 03:34:26;;;;;;;62.47;9.95;;;;;;;;;;5024274;28;20022;-83
2022/11/30 03:36:52;;;;;;;47.63;9.30;;;;;;;;;;5025164;28;20040;-82
2022/11/30 03:39:17;;;;;;;87.00;9.80;;;;;;;;;;5010657;28;20038;-82
2022/11/30 03:41:42;;;;;;;61.08;9.27;;;;;;;;;;5026658;28;20434;-80
2022/11/30 03:44:08;;;;;;;63.00;8.00;;;;;;;;;;5014287;28;20113;-83
2022/11/30 03:46:33;;;;;;;58.22;9.32;;;;;;;;;;5024257;28;20030;-82
2022/11/30 03:48:58;;;;;;;68.10;9.35;;;;;;;;;;5027431;28;20069;-82
2022/11/30 03:51:24;;;;;;;54.05;10.07;;;;;;;;;;5028823;28;20038;-82
2022/11/30 03:53:49;;;;;;;58.88;9.45;;;;;;;;;;5028785;28;20025;-82
2022/11/30 03:56:15;;;;;;;49.92;8.48;;;;;;;;;;5028237;28;20026;-83
2022/11/30 03:58:41;;;;;;;34.25;8.73;;;;;;;;;;5026959;28;20037;-82
2022/11/30 04:01:11;;;;;;;45.25;8.98;;;;;;;;;;5027570;28;20021;-82
2022/11/30 04:03:37;;;;;;;38.22;7.70;;;;;;;;;;5027410;28;20459;-83
2022/11/30 04:06:04;;;;;;;38.08;9.02;;;;;;;;;;5027061;28;20546;-82
2022/11/30 04:08:30;;;;;;;43.03;8.13;;;;;;;;;;5028883;28;20037;-83
2022/11/30 04:10:57;;;;;;;149.43;11.52;;;;;;;;;;5025974;28;20021;-83
2022/11/30 04:13:23;;;;;;;71.80;10.07;;;;;;;;;;5013328;28;20021;-82
2022/11/30 04:15:50;;;;;;;47.60;9.77;;;;;;;;;;5022529;28;20044;-83
2022/11/30 04:18:17;;;;;;;47.95;8.65;;;;;;;;;;5028421;28;20491;-83
2022/11/30 04:20:42;;;;;;;45.58;9.82;;;;;;;;;;5026713;28;20582;-83
2022/11/30 04:23:09;;;;;;;61.97;9.13;;;;;;;;;;5023100;28;21272;-81
2022/11/30 04:25:37;;;;;;;38.65;10.10;;;;;;;;;;5026096;28;20057;-82
2022/11/30 04:28:02;;;;;;;43.47;9.20;;;;;;;;;;5028688;28;20026;-82
2022/11/30 04:30:28;;;;;;;44.75;9.55;;;;;;;;;;5027211;28;20036;-83
2022/11/30 04:32:53;;;;;;;31.42;7.90;;;;;;;;;;5033848;28;20510;-84
2022/11/30 04:35:18;;;;;;;41.45;9.02;;;;;;;;;;5022113;28;20029;-82
2022/11/30 04:37:44;;;;;;;38.72;9.25;;;;;;;;;;5028249;28;20087;-83
2022/11/30 04:40:10;;;;;;;45.85;9.55;;;;;;;;;;5026159;28;20060;-82
2022/11/30 04:42:35;;;;;;;55.53;9.13;;;;;;;;;;5037804;28;20040;-83
2022/11/30 04:45:00;;;;;;;50.95;9.85;;;;;;;;;;5014425;28;20039;-82
2022/11/30 04:47:26;;;;;;;47.63;10.10;;;;;;;;;;5027493;28;20060;-83
2022/11/30 04:49:51;;;;;;;73.10;9.80;;;;;;;;;;5027526;28;20025;-82
2022/11/30 04:52:16;;;;;;;44.65;8.95;;;;;;;;;;5025062;28;20005;-82
2022/11/30 04:54:41;;;;;;;43.55;8.75;;;;;;;;;;5019504;28;20038;-83
2022/11/30 04:57:07;;;;;;;39.95;9.02;;;;;;;;;;5016638;28;20038;-82
2022/11/30 04:59:32;;;;;;;41.88;8.18;;;;;;;;;;5026647;28;20025;-82
2022/11/30 05:01:57;;;;;;;71.03;10.43;;;;;;;;;;5026153;28;20061;-82
2022/11/30 05:04:23;;;;;;;37.22;8.95;;;;;;;;;;5022576;28;20045;-82
2022/11/30 05:06:48;;;;;;;51.45;9.02;;;;;;;;;;5024887;28;20418;-83
2022/11/30 05:09:13;;;;;;;43.40;8.35;;;;;;;;;;5019017;28;20029;-82
2022/11/30 05:11:39;;;;;;;33.13;6.40;;;;;;;;;;5016841;28;20621;-82
2022/11/30 05:14:04;;;;;;;49.60;7.50;;;;;;;;;;5025385;28;20030;-82
2022/11/30 05:16:30;;;;;;;26.58;6.97;;;;;;;;;;5026629;28;20021;-82
2022/11/30 05:18:55;;;;;;;27.45;6.53;;;;;;;;;;5026867;28;20043;-82
2022/11/30 05:21:20;;;;;;;28.88;6.38;;;;;;;;;;5022375;28;20033;-82
2022/11/30 05:23:47;;;;;;;51.13;7.32;;;;;;;;;;5026131;28;20041;-83
2022/11/30 05:26:13;;;;;;;42.03;7.07;;;;;;;;;;5021498;28;20391;-83
2022/11/30 05:28:38;;;;;;;37.08;6.13;;;;;;;;;;5026827;28;20037;-83
2022/11/30 05:31:04;;;;;;;45.47;6.95;;;;;;;;;;5027488;28;20087;-82
2022/11/30 05:33:29;;;;;;;76.72;8.10;;;;;;;;;;5026575;28;20497;-80
2022/11/30 05:35:55;;;;;;;135.98;7.95;;;;;;;;;;5025799;28;20036;-82
2022/11/30 05:38:20;;;;;;;150.18;9.02;;;;;;;;;;5023982;28;20025;-80
2022/11/30 05:40:45;;;;;;;165.50;9.48;;;;;;;;;;5026893;28;20021;-83
2022/11/30 05:43:11;;;;;;;210.43;9.63;;;;;;;;;;5026163;28;20018;-83
2022/11/30 05:45:37;;;;;;;134.98;7.32;;;;;;;;;;5025879;28;20033;-82
2022/11/30 05:48:03;;;;;;;159.02;8.23;;;;;;;;;;5025966;28;20052;-82
2022/11/30 05:50:28;;;;;;;154.55;7.88;;;;;;;;;;5024461;28;20125;-83
2022/11/30 05:52:55;;;;;;;279.95;10.98;;;;;;;;;;5024608;28;20107;-82
2022/11/30 05:55:22;;;;;;;139.23;8.07;;;;;;;;;;5022992;28;20104;-77
2022/11/30 05:57:47;;;;;;;159.18;8.82;;;;;;;;;;5022326;28;20053;-83
2022/11/30 06:00:13;;;;;;;163.95;8.63;;;;;;;;;;5025631;28;20529;-82
2022/11/30 06:02:38;;;;;;;229.23;9.90;;;;;;;;;;5024479;28;20037;-82
2022/11/30 06:05:04;;;;;;;99.72;7.32;;;;;;;;;;5020790;28;20043;-82
2022/11/30 06:07:29;;;;;;;188.55;8.63;;;;;;;;;;5026477;28;20128;-82
2022/11/30 06:09:55;;;;;;;183.23;8.98;;;;;;;;;;5025091;28;20116;-83
2022/11/30 06:12:20;;;;;;;177.05;8.18;;;;;;;;;;5022663;28;20091;-78
2022/11/30 06:14:45;;;;;;;118.38;7.82;;;;;;;;;;5024109;28;20033;-83
2022/11/30 06:17:11;;;;;;;196.90;8.95;;;;;;;;;;5026271;28;20044;-82
2022/11/30 06:19:36;;;;;;;110.88;7.50;;;;;;;;;;5025837;28;20082;-82
2022/11/30 06:22:01;;;;;;;200.10;8.23;;;;;;;;;;5026755;28;20114;-82
2022/11/30 06:24:26;;;;;;;107.35;7.55;;;;;;;;;;5023279;28;20036;-82
2022/11/30 06:26:52;;;;;;;195.40;8.63;;;;;;;;;;5020846;28;20041;-83
2022/11/30 06:29:17;;;;;;;120.57;7.32;;;;;;;;;;5025603;28;20057;-83
2022/11/30 06:31:42;;;;;;;146.95;7.38;;;;;;;;;;5024624;28;20078;-82
2022/11/30 06:34:08;;;;;;;129.38;7.50;;;;;;;;;;5025146;28;20025;-82
2022/11/30 06:36:33;;;;;;;70.53;6.32;;;;;;;;;;5023517;28;20120;-82
2022/11/30 06:38:58;;;;;;;126.30;6.57;;;;;;;;;;5021541;28;20072;-81
2022/11/30 06:41:25;;;;;;;155.32;7.85;;;;;;;;;;5026059;28;20468;-82
2022/11/30 06:43:50;;;;;;;101.95;7.78;;;;;;;;;;5016734;28;20026;-83
2022/11/30 06:46:16;;;;;;;116.95;8.73;;;;;;;;;;5007259;28;20025;-82
2022/11/30 06:48:41;;;;;;;125.72;7.47;;;;;;;;;;5026816;28;20045;-82
2022/11/30 06:51:08;;;;;;;93.22;7.65;;;;;;;;;;5018368;28;20046;-81
2022/11/30 06:53:34;;;;;;;84.57;7.30;;;;;;;;;;5024721;28;20454;-82
2022/11/30 06:56:05;;;;;;;160.60;7.80;;;;;;;;;;5024086;28;20037;-81
2022/11/30 06:58:31;;;;;;;77.88;6.18;;;;;;;;;;5020260;28;20056;-81
2022/11/30 07:00:56;;;;;;;92.95;6.93;;;;;;;;;;5022219;28;20399;-81
2022/11/30 07:03:21;;;;;;;103.05;7.15;;;;;;;;;;5021468;28;20040;-82
2022/11/30 07:05:47;;;;;;;97.82;6.18;;;;;;;;;;5019390;28;20054;-83
2022/11/30 07:08:14;;;;;;;86.25;7.35;;;;;;;;;;5012205;28;20088;-83
2022/11/30 07:10:40;;;;;;;103.28;7.50;;;;;;;;;;5010831;28;20113;-82
2022/11/30 07:13:10;;;;;;;104.95;7.18;;;;;;;;;;5019388;28;20464;-82
2022/11/30 07:15:35;;;;;;;78.57;7.03;;;;;;;;;;5019181;28;20033;-82
2022/11/30 07:18:00;;;;;;;135.88;7.53;;;;;;;;;;5029461;28;20036;-83
2022/11/30 07:20:28;;;;;;;72.95;6.68;;;;;;;;;;5026802;28;20072;-79
2022/11/30 07:22:56;;;;;;;141.82;7.57;;;;;;;;;;5024914;28;21679;-82
2022/11/30 07:28:07;;;;;;;69.28;6.07;;;;;;;;;;5029036;28;20483;-81
2022/11/30 07:30:33;;;;;;;33.60;4.43;;;;;;;;;;5028794;28;20077;-81
2022/11/30 07:32:58;;;;;;;105.32;6.68;;;;;;;;;;5024969;28;20018;-81
2022/11/30 07:35:24;;;;;;;109.65;6.38;;;;;;;;;;5022662;28;20040;-80
2022/11/30 07:37:49;;;;;;;48.83;5.13;;;;;;;;;;5024946;28;20061;-82
2022/11/30 07:40:14;;;;;;;91.15;6.15;;;;;;;;;;5025778;28;20382;-83
2022/11/30 07:42:40;;;;;;;97.93;6.45;;;;;;;;;;5014208;28;20041;-80
2022/11/30 07:45:06;;;;;;;81.85;6.30;;;;;;;;;;5028499;28;20101;-82
2022/11/30 07:47:31;;;;;;;69.32;5.20;;;;;;;;;;5026348;28;20045;-82
2022/11/30 07:49:56;;;;;;;52.08;5.88;;;;;;;;;;5025347;28;20043;-82
2022/11/30 07:52:22;;;;;;;80.68;5.35;;;;;;;;;;5023032;28;20112;-81
2022/11/30 07:54:47;;;;;;;56.33;5.28;;;;;;;;;;5025352;28;20400;-82
2022/11/30 07:57:12;;;;;;;74.47;5.75;;;;;;;;;;5027255;28;20548;-82
2022/11/30 07:59:38;;;;;;;100.55;6.20;;;;;;;;;;5027677;28;20084;-83
2022/11/30 08:02:03;;;;;;;65.00;5.28;;;;;;;;;;5026684;28;20034;-82
2022/11/30 08:04:28;;;;;;;90.68;5.93;;;;;;;;;;5023396;28;20022;-83
2022/11/30 08:06:54;;;;;;;68.57;5.72;;;;;;;;;;5023892;28;20087;-82
2022/11/30 08:09:19;;;;;;;50.70;4.93;;;;;;;;;;5027361;28;20033;-82
2022/11/30 08:11:45;;;;;;;99.30;5.70;;;;;;;;;;5027256;28;20087;-83
2022/11/30 08:14:11;;;;;;;55.42;4.50;;;;;;;;;;5025921;28;20036;-83
2022/11/30 08:16:37;;;;;;;50.30;5.35;;;;;;;;;;5028020;28;20542;-82
2022/11/30 08:19:02;;;;;;;36.50;4.57;;;;;;;;;;5027139;28;20027;-82
2022/11/30 08:21:30;;;;;;;71.25;5.38;;;;;;;;;;5025628;28;20096;-78
2022/11/30 08:23:56;;;;;;;77.18;6.45;;;;;;;;;;5022222;28;20061;-81
2022/11/30 08:26:23;;;;;;;47.60;5.43;;;;;;;;;;5024510;28;20025;-83
2022/11/30 08:28:50;;;;;;;55.30;5.40;;;;;;;;;;5024350;28;20105;-83
2022/11/30 08:31:18;;;;;;;60.47;6.13;;;;;;;;;;5027688;28;20015;-83
2022/11/30 08:33:44;;;;;;;61.08;6.20;;;;;;;;;;5025351;28;20457;-82
2022/11/30 08:36:11;;;;;;;22.42;5.78;;;;;;;;;;5025551;28;20662;-83
2022/11/30 08:38:37;;;;;;;40.13;5.20;;;;;;;;;;5021131;28;20095;-83
2022/11/30 08:41:04;;;;;;;28.38;5.47;;;;;;;;;;5026280;28;20038;-82
2022/11/30 08:43:29;;;;;;;35.35;5.10;;;;;;;;;;5018772;28;20018;-83
2022/11/30 08:45:54;;;;;;;53.20;6.78;;;;;;;;;;5023268;28;20033;-82
2022/11/30 08:48:20;;;;;;;41.90;6.05;;;;;;;;;;5024930;28;20125;-83
2022/11/30 08:50:45;;;;;;;18.30;6.38;;;;;;;;;;5016620;28;20133;-83
2022/11/30 08:53:10;;;;;;;41.72;6.80;;;;;;;;;;5019980;28;20040;-82
2022/11/30 08:55:36;;;;;;;44.50;5.40;;;;;;;;;;5026866;28;20098;-83
2022/11/30 08:58:01;;;;;;;44.53;6.03;;;;;;;;;;5024789;28;20021;-83
2022/11/30 09:00:26;;;;;;;51.50;6.47;;;;;;;;;;5026386;28;20072;-81
2022/11/30 09:02:52;;;;;;;64.50;6.05;;;;;;;;;;5024165;28;20033;-79
2022/11/30 09:05:17;;;;;;;40.63;5.38;;;;;;;;;;5022297;28;20403;-83
2022/11/30 09:07:43;;;;;;;56.38;6.40;;;;;;;;;;5033011;28;20115;-78
2022/11/30 09:10:08;;;;;;;40.65;6.22;;;;;;;;;;5019565;28;20517;-83
2022/11/30 09:12:38;;;;;;;28.92;6.28;;;;;;;;;;5021367;28;20030;-84
2022/11/30 09:15:05;;;;;;;27.30;6.18;;;;;;;;;;5021260;28;20049;-84
2022/11/30 09:17:30;;;;;;;62.13;6.32;;;;;;;;;;5026552;28;20885;-80
2022/11/30 09:19:56;;;;;;;30.13;5.60;;;;;;;;;;5024779;28;20117;-81
2022/11/30 09:22:21;;;;;;;38.03;6.60;;;;;;;;;;5026059;28;20025;-83
2022/11/30 09:24:47;;;;;;;40.42;6.25;;;;;;;;;;5019405;28;20419;-83
2022/11/30 09:27:12;;;;;;;33.85;6.40;;;;;;;;;;5019566;28;20136;-82
2022/11/30 09:29:37;;;;;;;41.53;6.68;;;;;;;;;;5041637;28;20037;-83
2022/11/30 09:32:03;;;;;;;25.05;6.88;;;;;;;;;;5021308;28;20466;-83
2022/11/30 09:34:28;;;;;;;26.65;6.43;;;;;;;;;;5019736;28;20032;-83
2022/11/30 09:36:53;;;;;;;45.28;7.40;;;;;;;;;;5024604;28;20529;-83
2022/11/30 09:39:19;;;;;;;25.85;5.65;;;;;;;;;;5025152;28;20037;-82
2022/11/30 09:42:05;;;;;;;35.95;6.72;;;;;;;;;;5026610;28;20030;-83
2022/11/30 09:44:57;;;;;;;17.92;5.63;;;;;;;;;;5024472;28;20120;-83
2022/11/30 09:47:37;;;;;;;22.15;6.07;;;;;;;;;;5024002;28;20038;-83
2022/11/30 09:50:13;;;;;;;26.95;6.22;;;;;;;;;;5022285;28;20057;-83
2022/11/30 09:52:43;;;;;;;16.38;5.97;;;;;;;;;;5025868;28;20022;-83
2022/11/30 09:55:12;;;;;;;19.02;6.55;;;;;;;;;;5025926;28;20029;-83
2022/11/30 09:57:40;;;;;;;23.85;5.70;;;;;;;;;;5026201;28;20068;-83
2022/11/30 10:00:18;;;;;;;18.20;5.75;;;;;;;;;;5018426;28;20037;-83
2022/11/30 10:02:44;;;;;;;17.83;6.18;;;;;;;;;;5037395;28;20409;-83
2022/11/30 10:05:19;;;;;;;27.42;6.57;;;;;;;;;;5023452;28;20041;-83
2022/11/30 10:08:00;;;;;;;20.38;6.38;;;;;;;;;;5021313;28;20033;-83
2022/11/30 10:10:37;;;;;;;19.83;5.40;;;;;;;;;;5021459;28;20096;-86
2022/11/30 10:13:11;;;;;;;18.75;6.30;;;;;;;;;;5016305;28;20154;-84
2022/11/30 10:15:39;;;;;;;;;;;;;;;;;;5024021;28;21510;-78
2022/11/30 10:18:26;;;;;;;20.73;6.05;;;;;;;;;;5018129;28;19971;-78
2022/11/30 10:21:04;;;;;;;18.20;6.07;;;;;;;;;;5019987;28;20125;-77
2022/11/30 10:23:35;;;;;;;19.50;5.97;;;;;;;;;;5020300;28;20055;-79
2022/11/30 10:26:08;;;;;;;18.70;6.20;;;;;;;;;;5011660;28;20045;-77
2022/11/30 10:28:41;;;;;;;20.38;6.40;;;;;;;;;;5022597;28;20487;-83
2022/11/30 10:31:11;;;;;;;16.05;6.00;;;;;;;;;;5017840;28;20045;-84
2022/11/30 10:33:42;;;;;;;20.15;6.75;;;;;;;;;;5025143;28;20125;-84
2022/11/30 10:36:16;;;;;;;16.40;5.68;;;;;;;;;;5023841;28;20399;-83
2022/11/30 10:39:05;;;;;;;15.95;5.85;;;;;;;;;;5024156;28;20037;-83
2022/11/30 10:42:05;;;;;;;17.05;6.57;;;;;;;;;;5023470;28;20041;-84
2022/11/30 10:44:35;;;;;;;15.18;6.22;;;;;;;;;;5022968;28;20560;-83
2022/11/30 10:47:22;;;;;;;16.23;6.03;;;;;;;;;;5025070;28;20037;-83
2022/11/30 10:49:49;;;;;;;20.67;6.63;;;;;;;;;;5020167;28;20025;-83
2022/11/30 10:52:23;;;;;;;21.13;7.28;;;;;;;;;;5015372;28;20017;-83
2022/11/30 10:54:50;;;;;;;;;;;;;;;;;;5007637;28;20533;-83
2022/11/30 10:57:15;;;;;;;15.10;6.00;;;;;;;;;;5021675;28;19940;-83
2022/11/30 10:59:46;;;;;;;19.92;6.35;;;;;;;;;;5021301;28;20247;-83
2022/11/30 11:02:33;;;;;;;15.25;5.97;;;;;;;;;;5019327;28;20582;-83
2022/11/30 11:05:13;;;;;;;21.85;7.10;;;;;;;;;;5021996;28;20040;-84
2022/11/30 11:07:53;;;;;;;23.08;6.97;;;;;;;;;;5002881;28;20091;-83
2022/11/30 11:10:26;;;;;;;35.20;7.00;;;;;;;;;;5022309;28;20074;-84
2022/11/30 11:12:53;;;;;;;28.73;7.10;;;;;;;;;;5022345;28;20113;-83
2022/11/30 11:15:21;;;;;;;19.77;7.22;;;;;;;;;;5019507;28;20120;-83
2022/11/30 11:17:48;;;;;;;26.05;7.38;;;;;;;;;;5019024;28;20577;-83
2022/11/30 11:20:35;;;;;;;19.05;7.78;;;;;;;;;;5021060;28;20033;-83
2022/11/30 11:23:02;;;;;;;19.55;7.20;;;;;;;;;;5021869;28;20507;-83
2022/11/30 11:25:33;;;;;;;19.67;6.82;;;;;;;;;;5024384;28;20457;-83
2022/11/30 11:28:20;;;;;;;20.10;7.05;;;;;;;;;;5025361;28;20047;-83
2022/11/30 11:30:46;;;;;;;21.60;7.43;;;;;;;;;;5017311;28;20038;-83
2022/11/30 11:33:12;;;;;;;20.80;7.75;;;;;;;;;;5013958;28;20037;-83
2022/11/30 11:35:40;;;;;;;20.75;8.27;;;;;;;;;;5020794;28;20100;-83
2022/11/30 11:38:42;;;;;;;24.60;8.50;;;;;;;;;;5023291;28;20061;-83
2022/11/30 11:41:29;;;;;;;28.88;9.07;;;;;;;;;;5016167;28;20930;-83
2022/11/30 11:44:01;;;;;;;22.70;8.43;;;;;;;;;;5018510;28;20157;-82
2022/11/30 11:46:28;;;;;;;21.13;7.40;;;;;;;;;;5020414;28;20013;-83
2022/11/30 11:48:59;;;;;;;19.02;7.32;;;;;;;;;;5015494;28;20115;-82
2022/11/30 11:51:44;;;;;;;22.50;8.00;;;;;;;;;;5020451;28;20048;-82
2022/11/30 11:54:23;;;;;;;22.55;7.57;;;;;;;;;;5021811;28;20163;-83
2022/11/30 11:56:49;;;;;;;23.77;8.65;;;;;;;;;;5018831;28;20438;-83
2022/11/30 11:59:45;;;;;;;22.42;8.23;;;;;;;;;;5018592;28;20030;-82
2022/11/30 12:02:44;;;;;;;25.83;9.25;;;;;;;;;;5016393;28;20044;-83
2022/11/30 12:05:23;;;;;;;20.38;7.82;;;;;;;;;;5021484;28;20037;-83
2022/11/30 12:08:06;;;;;;;24.15;7.97;;;;;;;;;;5022713;28;20024;-83
2022/11/30 12:10:40;;;;;;;24.45;8.23;;;;;;;;;;5018818;28;20028;-82
2022/11/30 12:13:36;;;;;;;18.67;7.45;;;;;;;;;;5024117;28;20044;-82
2022/11/30 12:16:13;;;;;;;21.73;8.13;;;;;;;;;;5024475;28;20120;-83
2022/11/30 12:18:59;;;;;;;26.17;8.50;;;;;;;;;;5025886;28;20034;-82
2022/11/30 12:21:40;;;;;;;20.90;8.45;;;;;;;;;;5017500;28;20049;-83
2022/11/30 12:24:30;;;;;;;25.40;8.32;;;;;;;;;;5023271;28;20088;-82
2022/11/30 12:27:04;;;;;;;18.83;7.70;;;;;;;;;;5021693;28;20518;-82
2022/11/30 12:29:33;;;;;;;20.38;7.82;;;;;;;;;;5023326;28;20033;-83
2022/11/30 12:32:30;;;;;;;23.52;8.25;;;;;;;;;;5025725;28;20036;-82
2022/11/30 12:35:07;;;;;;;21.70;7.35;;;;;;;;;;5019215;28;20037;-83
2022/11/30 12:37:45;;;;;;;15.60;7.47;;;;;;;;;;5017038;28;20025;-83
2022/11/30 12:40:27;;;;;;;25.73;9.02;;;;;;;;;;5019686;28;20080;-82
2022/11/30 12:43:18;;;;;;;23.92;8.35;;;;;;;;;;5010545;28;20068;-83
2022/11/30 12:45:45;;;;;;;21.70;7.95;;;;;;;;;;4998501;28;20061;-83
2022/11/30 12:48:15;;;;;;;22.48;8.05;;;;;;;;;;5021074;28;20029;-82
2022/11/30 12:51:00;;;;;;;25.95;9.00;;;;;;;;;;5023429;28;20061;-83
2022/11/30 12:53:49;;;;;;;21.45;9.00;;;;;;;;;;5021832;28;20042;-82
2022/11/30 12:56:24;;;;;;;21.33;8.80;;;;;;;;;;5000990;28;20026;-83
2022/11/30 12:59:18;;;;;;;26.15;9.82;;;;;;;;;;5020107;28;20407;-83
2022/11/30 13:01:49;;;;;;;26.08;7.72;;;;;;;;;;5015109;28;20113;-82
2022/11/30 13:04:36;;;;;;;26.92;8.60;;;;;;;;;;5021912;28;20869;-82
2022/11/30 13:07:10;;;;;;;21.80;8.65;;;;;;;;;;5022657;28;20718;-82
2022/11/30 13:09:49;;;;;;;26.88;9.38;;;;;;;;;;5025595;28;20597;-83
2022/11/30 13:12:28;;;;;;;27.38;8.73;;;;;;;;;;5040393;28;20578;-82
2022/11/30 13:14:58;;;;;;;23.95;8.57;;;;;;;;;;5023923;28;20559;-83
2022/11/30 13:17:25;;;;;;;24.13;9.60;;;;;;;;;;5017831;28;20045;-82
2022/11/30 13:20:03;;;;;;;28.05;9.10;;;;;;;;;;5018007;28;20112;-83
2022/11/30 13:22:47;;;;;;;25.65;9.90;;;;;;;;;;5019634;28;20029;-83
2022/11/30 13:25:36;;;;;;;27.75;9.77;;;;;;;;;;5021857;28;20132;-83
2022/11/30 13:28:30;;;;;;;25.85;8.85;;;;;;;;;;5026470;28;20529;-82
2022/11/30 13:31:06;;;;;;;26.70;8.77;;;;;;;;;;5026178;28;20111;-83
2022/11/30 13:33:47;;;;;;;26.25;8.90;;;;;;;;;;5025407;28;20033;-83
2022/11/30 13:36:31;;;;;;;26.40;8.52;;;;;;;;;;5014422;28;20048;-82
2022/11/30 13:39:29;;;;;;;32.72;11.50;;;;;;;;;;5026577;28;20022;-83
2022/11/30 13:42:00;;;;;;;29.45;10.15;;;;;;;;;;5021653;28;20430;-77
2022/11/30 13:44:34;;;;;;;28.30;9.60;;;;;;;;;;5040326;28;20042;-83
2022/11/30 13:47:02;;;;;;;27.42;9.85;;;;;;;;;;5026603;28;20418;-83
2022/11/30 13:49:30;;;;;;;23.80;8.80;;;;;;;;;;5024387;28;20060;-84
2022/11/30 13:51:56;;;;;;;32.00;8.65;;;;;;;;;;5017971;28;20041;-84
2022/11/30 13:54:49;;;;;;;25.42;9.18;;;;;;;;;;5024333;28;20446;-84
2022/11/30 13:57:23;;;;;;;28.25;10.15;;;;;;;;;;5025000;28;20061;-84
2022/11/30 13:59:59;;;;;;;27.63;9.13;;;;;;;;;;5024126;28;20086;-83
2022/11/30 14:02:43;;;;;;;33.67;10.65;;;;;;;;;;5024362;28;20048;-84
2022/11/30 14:05:17;;;;;;;30.35;10.43;;;;;;;;;;5022141;28;20037;-84
2022/11/30 14:08:03;;;;;;;23.80;9.27;;;;;;;;;;5017007;28;20037;-84
2022/11/30 14:10:32;;;;;;;26.00;9.27;;;;;;;;;;5023021;28;20502;-84
2022/11/30 14:13:08;;;;;;;29.92;9.73;;;;;;;;;;5022538;28;20038;-84
2022/11/30 14:15:42;;;;;;;29.98;10.15;;;;;;;;;;5019820;28;20041;-84
2022/11/30 14:18:07;;;;;;;27.45;10.00;;;;;;;;;;5023630;28;20034;-84
2022/11/30 14:20:37;;;;;;;31.73;9.25;;;;;;;;;;5022212;28;20040;-84
2022/11/30 14:23:10;;;;;;;28.48;9.70;;;;;;;;;;5039805;28;20107;-83
2022/11/30 14:25:38;;;;;;;;;;;;;;;;;;5020366;28;20068;-84
2022/11/30 14:28:04;;;;;;;26.42;9.35;;;;;;;;;;5019480;28;20333;-84
2022/11/30 14:30:32;;;;;;;24.42;9.05;;;;;;;;;;5024254;28;20514;-84
2022/11/30 14:33:02;;;;;;;23.17;9.30;;;;;;;;;;5023073;28;20410;-83
2022/11/30 14:35:32;;;;;;;24.88;10.32;;;;;;;;;;5018104;28;20045;-84
2022/11/30 14:37:59;;;;;;;31.42;10.63;;;;;;;;;;5021107;28;20033;-84
2022/11/30 14:40:29;;;;;;;27.25;8.52;;;;;;;;;;5024473;28;20116;-84
2022/11/30 14:43:01;;;;;;;34.42;10.90;;;;;;;;;;5020657;28;20240;-84
2022/11/30 14:45:28;;;;;;;33.30;10.48;;;;;;;;;;5021067;28;20522;-84
2022/11/30 14:48:05;;;;;;;27.95;9.63;;;;;;;;;;5025741;28;20045;-84